Time;durP1;ratioP1;P1;durP2;ratioP2;P2;SDS_P1;SDS_P2;PMS_P1;PMS_P2;Temp;Humidity;BMP_temperature;BMP_pressure;BME280_temperature;BME280_humidity;BME280_pressure;Samples;Min_cycle;Max_cycle;Signal;HPM_P1;HPM_P2
2023/11/07 00:02:41;;;;;;;;;;;;;;;;;;;;;
2023/11/07 00:14:46;;;;;;;17.40;5.90;;;;;;;7.69;100.00;99762.17;223621;1265;138658;-82
2023/11/07 00:20:54;;;;;;;20.40;5.60;;;;;;;7.76;100.00;99763.27;223281;1265;140385;-82
2023/11/07 00:26:57;;;;;;;15.90;5.60;;;;;;;7.84;100.00;99767.11;223584;1266;138684;-82
2023/11/07 00:32:43;;;;;;;16.80;5.90;;;;;;;7.91;100.00;99767.83;223026;1266;139095;-83
2023/11/07 00:38:18;;;;;;;12.80;4.70;;;;;;;7.98;100.00;99777.77;223117;1266;139572;-82
2023/11/07 00:50:21;;;;;;;15.70;5.20;;;;;;;8.15;100.00;99768.80;223072;1266;139895;-82
2023/11/07 00:56:08;;;;;;;14.80;4.10;;;;;;;8.23;100.00;99765.14;223584;1266;139283;-84
2023/11/07 01:02:09;;;;;;;14.80;3.90;;;;;;;8.30;100.00;99769.20;223199;1265;139124;-82
2023/11/07 01:08:10;;;;;;;12.30;3.90;;;;;;;8.40;100.00;99772.66;223070;1266;139103;-84
2023/11/07 01:14:24;;;;;;;14.20;3.80;;;;;;;8.49;100.00;99777.05;223760;1265;138559;-84
2023/11/07 01:20:24;;;;;;;12.30;4.00;;;;;;;8.56;100.00;99787.22;223045;1266;139279;-83
2023/11/07 01:32:28;;;;;;;9.80;3.30;;;;;;;8.67;100.00;99800.24;223178;1266;140728;-84
2023/11/07 01:38:21;;;;;;;15.10;4.00;;;;;;;8.72;100.00;99799.90;223152;1265;139576;-83
2023/11/07 01:44:22;;;;;;;10.70;3.50;;;;;;;8.76;100.00;99805.73;223689;1266;139198;-83
2023/11/07 01:50:23;;;;;;;8.90;3.20;;;;;;;8.79;100.00;99804.89;223049;1265;139872;-83
2023/11/07 01:56:26;;;;;;;12.10;3.40;;;;;;;8.84;100.00;99818.25;223705;1269;138879;-83
2023/11/07 02:08:21;;;;;;;;;;;;;;;;;;;;;
2023/11/07 02:26:11;;;;;;;13.30;3.00;;;;;;;9.02;100.00;99824.52;223720;1266;138985;-83
2023/11/07 02:32:13;;;;;;;7.50;3.10;;;;;;;8.99;100.00;99828.19;223102;1266;139194;-83
2023/11/07 02:38:14;;;;;;;10.80;3.20;;;;;;;8.96;100.00;99831.06;223165;1269;139534;-83
2023/11/07 02:50:17;;;;;;;8.80;3.00;;;;;;;8.92;100.00;99843.96;223189;1266;139111;-82
2023/11/07 02:56:09;;;;;;;;;;;;;;;;;;;;;
2023/11/07 03:02:21;;;;;;;9.60;3.20;;;;;;;8.89;100.00;99859.38;223243;1266;138944;-83
2023/11/07 03:08:07;;;;;;;12.10;2.80;;;;;;;8.88;100.00;99862.29;223047;1266;139358;-84
2023/11/07 03:14:07;;;;;;;9.20;2.70;;;;;;;8.86;100.00;99865.65;223701;1267;139259;-83
2023/11/07 03:26:09;;;;;;;7.30;2.70;;;;;;;8.76;100.00;99877.61;223725;1266;138462;-82
2023/11/07 03:38:12;;;;;;;9.60;3.20;;;;;;;8.60;100.00;99880.11;223067;1266;139841;-83
2023/11/07 03:44:13;;;;;;;10.70;3.50;;;;;;;8.53;100.00;99886.55;223750;1267;138752;-82
2023/11/07 03:50:13;;;;;;;16.90;3.40;;;;;;;8.45;100.00;99887.56;223173;1266;139283;-83
2023/11/07 04:02:19;;;;;;;8.90;2.80;;;;;;;8.35;100.00;99895.83;223250;1266;139386;-83
2023/11/07 04:08:19;;;;;;;8.40;2.10;;;;;;;8.35;100.00;99896.92;223096;1266;139039;-83
2023/11/07 04:14:21;;;;;;;9.20;2.60;;;;;;;8.36;100.00;99895.53;223685;1266;138749;-83
2023/11/07 04:20:20;;;;;;;8.00;2.50;;;;;;;8.39;100.00;99904.90;223143;1267;139433;-83
2023/11/07 04:26:22;;;;;;;6.30;2.40;;;;;;;8.45;100.00;99909.51;223590;1265;139466;-82
2023/11/07 04:32:23;;;;;;;10.80;2.50;;;;;;;8.52;100.00;99911.77;223168;1269;139004;-83
2023/11/07 04:38:24;;;;;;;5.10;1.70;;;;;;;8.57;100.00;99912.23;223033;1266;139203;-83
2023/11/07 04:50:36;;;;;;;8.50;2.30;;;;;;;8.65;100.00;99912.45;223196;1269;139428;-83
2023/11/07 04:56:15;;;;;;;;;;;;;;;8.67;100.00;99918.90;223689;1267;138750;-83
2023/11/07 05:02:15;;;;;;;9.90;2.30;;;;;;;8.66;100.00;99916.08;223246;1270;126187;-83
2023/11/07 05:14:17;;;;;;;4.20;1.90;;;;;;;8.63;100.00;99927.26;223618;1269;139282;-83
2023/11/07 05:20:19;;;;;;;6.70;2.10;;;;;;;8.58;100.00;99932.91;223024;1265;139019;-84
2023/11/07 05:26:22;;;;;;;5.20;2.00;;;;;;;8.51;100.00;99932.61;223706;1265;138378;-82
2023/11/07 05:32:11;;;;;;;7.30;2.00;;;;;;;8.41;100.00;99932.88;223222;1266;139183;-82
2023/11/07 05:38:11;;;;;;;7.10;2.00;;;;;;;8.34;100.00;99947.99;223157;1269;139262;-83
2023/11/07 05:44:16;;;;;;;6.90;2.50;;;;;;;8.25;100.00;99953.43;223711;1265;138519;-82
2023/11/07 05:50:10;;;;;;;8.20;2.60;;;;;;;8.16;100.00;99961.23;222981;1269;139751;-83
2023/11/07 05:56:11;;;;;;;8.50;3.30;;;;;;;8.08;100.00;99962.81;223556;1266;138933;-85
2023/11/07 06:02:11;;;;;;;10.00;3.70;;;;;;;8.00;100.00;99974.70;223018;1269;138907;-83
2023/11/07 06:08:12;;;;;;;9.40;3.40;;;;;;;7.93;100.00;99979.37;223124;1269;139990;-83
2023/11/07 06:14:05;;;;;;;;;;;;;;;;;;;;;
2023/11/07 06:19:52;;;;;;;;;;;;;;;;;;;;;
2023/11/07 06:25:55;;;;;;;8.10;3.10;;;;;;;7.72;100.00;99992.27;223735;1266;138988;-83
2023/11/07 06:44:11;;;;;;;8.40;3.50;;;;;;;7.60;100.00;100017.35;223784;1265;138827;-83
2023/11/07 06:50:12;;;;;;;13.00;4.00;;;;;;;7.58;100.00;100027.11;223044;1269;139364;-84
2023/11/07 07:02:15;;;;;;;10.50;3.40;;;;;;;7.56;100.00;100031.14;223143;1267;141142;-83
2023/11/07 07:20:11;;;;;;;11.30;4.80;;;;;;;7.65;100.00;100047.98;223003;1267;139492;-83
2023/11/07 07:26:12;;;;;;;11.90;4.60;;;;;;;7.72;100.00;100057.00;223519;1269;139094;-83
2023/11/07 07:32:20;;;;;;;11.10;4.10;;;;;;;7.83;100.00;100066.64;223219;1270;139343;-83
2023/11/07 07:38:24;;;;;;;10.30;4.00;;;;;;;7.94;100.00;100068.94;223156;1265;139471;-83
2023/11/07 07:44:22;;;;;;;8.50;3.60;;;;;;;8.09;100.00;100078.33;223718;1266;138820;-85
2023/11/07 07:50:23;;;;;;;13.80;4.20;;;;;;;8.25;100.00;100077.20;223083;1266;139379;-82
2023/11/07 07:56:24;;;;;;;13.20;4.10;;;;;;;8.41;100.00;100080.64;223736;1265;138566;-84
2023/11/07 08:02:25;;;;;;;9.50;3.90;;;;;;;8.60;100.00;100084.83;223165;1265;139508;-83
2023/11/07 08:08:26;;;;;;;9.00;3.40;;;;;;;8.82;100.00;100088.00;223183;1265;140895;-84
2023/11/07 08:14:29;;;;;;;12.10;4.20;;;;;;;9.09;100.00;100089.42;223720;1265;138379;-83
2023/11/07 08:26:33;;;;;;;8.60;2.80;;;;;;;9.71;100.00;100091.02;223685;1265;138663;-83
2023/11/07 08:32:33;;;;;;;9.00;3.50;;;;;;;9.99;100.00;100093.55;223313;1266;139711;-83
2023/11/07 08:38:33;;;;;;;;;;;;;;;;;;;;;
2023/11/07 08:44:35;;;;;;;8.20;3.10;;;;;;;10.73;100.00;100093.17;223733;1265;138828;-84
2023/11/07 08:50:37;;;;;;;10.10;3.20;;;;;;;11.18;100.00;100086.52;223103;1265;140320;-84
2023/11/07 08:56:23;;;;;;;;;;;;;;;;;;;;;
2023/11/07 09:02:08;;;;;;;10.60;3.10;;;;;;;12.06;100.00;100094.31;223206;1266;140861;-84
2023/11/07 09:08:02;;;;;;;;;;;;;;;;;;;;;
2023/11/07 09:13:54;;;;;;;9.60;2.60;;;;;;;12.84;100.00;100103.31;223719;1265;139264;-85
2023/11/07 09:19:47;;;;;;;;;;;;;;;;;;;;;
2023/11/07 09:25:51;;;;;;;8.40;3.00;;;;;;;13.38;99.92;100106.58;223689;1265;139439;-85
2023/11/07 09:31:52;;;;;;;5.60;2.20;;;;;;;13.52;97.99;100103.59;219021;1265;5458700;-84
2023/11/07 09:37:52;;;;;;;7.70;2.60;;;;;;;13.66;97.24;100106.96;223634;1265;138900;-84
2023/11/07 09:44:16;;;;;;;8.80;2.60;;;;;;;13.76;95.66;100108.64;223616;1265;138692;-84
2023/11/07 09:49:55;;;;;;;3.80;1.70;;;;;;;13.78;94.79;100109.80;223207;1265;140124;-84
2023/11/07 09:55:55;;;;;;;7.00;2.30;;;;;;;13.76;94.26;100111.23;223764;1265;138695;-84
2023/11/07 10:01:57;;;;;;;6.70;2.80;;;;;;;13.74;93.28;100109.12;223106;1265;139870;-83
2023/11/07 10:07:57;;;;;;;10.60;2.20;;;;;;;13.63;91.84;100110.39;223565;1265;138931;-86
2023/11/07 10:13:59;;;;;;;14.30;3.60;;;;;;;13.56;92.32;100104.19;223790;1265;139641;-84
2023/11/07 10:20:00;;;;;;;8.80;2.60;;;;;;;13.55;92.68;100099.55;223357;1265;140013;-83
2023/11/07 10:26:07;;;;;;;10.30;2.80;;;;;;;13.51;92.96;100106.36;223794;1265;138663;-84
2023/11/07 10:32:12;;;;;;;;;;;;;;;;;;;;;
2023/11/07 10:38:15;;;;;;;10.40;2.60;;;;;;;13.61;91.73;100110.95;223093;1265;139745;-84
2023/11/07 10:44:23;;;;;;;7.90;2.60;;;;;;;13.58;91.61;100107.49;223612;1265;138788;-84
2023/11/07 10:50:20;;;;;;;6.20;2.60;;;;;;;13.58;91.41;100102.81;223088;1265;139876;-86
2023/11/07 10:56:13;;;;;;;10.30;4.10;;;;;;;13.64;92.47;100089.44;223760;1265;139361;-87
2023/11/07 11:02:05;;;;;;;;;;;;;;;;;;;;;
2023/11/07 11:08:04;;;;;;;5.50;2.40;;;;;;;13.59;91.28;100090.65;223253;1265;139627;-84
2023/11/07 11:14:09;;;;;;;5.80;1.50;;;;;;;13.52;90.95;100091.73;223719;1265;138788;-83
2023/11/07 11:20:13;;;;;;;9.50;1.80;;;;;;;13.41;90.59;100091.08;223098;1265;139792;-84
2023/11/07 11:26:17;;;;;;;5.30;1.30;;;;;;;13.25;90.23;100089.20;223676;1265;138739;-82
2023/11/07 11:32:16;;;;;;;4.90;1.60;;;;;;;13.10;91.19;100088.40;223239;1265;139556;-83
2023/11/07 11:38:42;;;;;;;5.90;2.20;;;;;;;12.97;91.25;100092.64;223169;1265;140115;-82
2023/11/07 11:44:12;;;;;;;7.80;2.00;;;;;;;12.86;90.53;100095.66;223540;1265;138690;-87
2023/11/07 11:49:56;;;;;;;3.90;1.70;;;;;;;12.74;89.85;100093.88;223215;1266;139853;-82
2023/11/07 11:55:58;;;;;;;3.90;1.50;;;;;;;12.69;90.56;100086.25;223777;1265;138740;-84
2023/11/07 12:01:59;;;;;;;4.00;0.90;;;;;;;12.60;90.31;100087.92;222821;1265;139909;-84
2023/11/07 12:08:13;;;;;;;4.80;1.50;;;;;;;12.44;90.12;100083.38;223629;1266;139355;-85
2023/11/07 12:14:16;;;;;;;4.80;1.70;;;;;;;12.36;90.27;100084.27;223883;1265;139051;-85
2023/11/07 12:20:08;;;;;;;6.10;1.90;;;;;;;12.40;90.98;100082.38;223097;1265;139927;-84
2023/11/07 12:26:11;;;;;;;5.50;2.20;;;;;;;12.49;90.45;100083.55;223697;1266;139276;-84
2023/11/07 12:32:17;;;;;;;6.40;1.80;;;;;;;12.60;90.55;100085.80;223058;1266;139651;-85
2023/11/07 12:38:19;;;;;;;5.30;1.90;;;;;;;12.67;88.71;100084.83;222947;1265;139638;-85
2023/11/07 12:44:21;;;;;;;3.40;1.50;;;;;;;12.69;89.72;100084.35;223613;1265;138771;-85
2023/11/07 12:56:20;;;;;;;;;;;;;;;;;;;;;
2023/11/07 13:02:50;;;;;;;8.70;2.60;;;;;;;12.32;91.13;100088.07;223144;1265;139512;-86
2023/11/07 13:08:25;;;;;;;7.70;2.80;;;;;;;12.18;92.24;100087.37;222917;1266;139642;-86
2023/11/07 13:20:31;;;;;;;9.60;3.30;;;;;;;12.09;93.89;100083.77;223117;1265;140260;-85
2023/11/07 13:26:34;;;;;;;7.60;2.30;;;;;;;12.06;94.23;100084.55;223519;1265;138964;-85
2023/11/07 13:32:11;;;;;;;7.50;2.50;;;;;;;12.07;94.57;100087.07;223127;1265;139742;-87
2023/11/07 13:38:12;;;;;;;8.60;2.70;;;;;;;12.10;94.88;100088.32;223190;1265;140147;-84
2023/11/07 13:44:13;;;;;;;9.20;2.30;;;;;;;12.10;94.81;100091.09;223724;1265;142211;-86
2023/11/07 13:50:14;;;;;;;6.90;2.70;;;;;;;12.10;94.95;100091.08;223116;1265;140051;-84
2023/11/07 13:56:08;;;;;;;;;;;;;;;;;;;;;
2023/11/07 14:02:02;;;;;;;7.50;2.80;;;;;;;12.05;94.20;100095.02;223291;1265;139835;-84
2023/11/07 14:08:03;;;;;;;8.80;2.70;;;;;;;12.04;94.30;100096.91;223331;1265;140098;-84
2023/11/07 14:14:04;;;;;;;10.40;4.00;;;;;;;12.05;94.70;100100.38;223762;1265;139862;-84
2023/11/07 14:20:09;;;;;;;9.40;3.80;;;;;;;12.05;94.55;100101.48;223224;1265;140722;-85
2023/11/07 14:26:08;;;;;;;9.50;2.70;;;;;;;12.04;94.54;100101.41;223626;1265;138656;-82
2023/11/07 14:32:08;;;;;;;7.00;2.70;;;;;;;12.02;94.40;100101.58;223167;1265;139522;-82
2023/11/07 14:37:57;;;;;;;;;;;;;;;;;;;;;
2023/11/07 14:43:59;;;;;;;10.10;3.20;;;;;;;11.95;94.76;100096.59;223585;1265;138627;-84
2023/11/07 14:50:00;;;;;;;13.30;5.40;;;;;;;11.90;95.21;100095.09;223077;1265;140150;-85
2023/11/07 14:55:52;;;;;;;;;;;;;;;;;;;;;
2023/11/07 15:01:55;;;;;;;15.50;5.20;;;;;;;11.81;95.64;100091.48;223087;1265;140364;-84
2023/11/07 15:07:57;;;;;;;18.80;8.30;;;;;;;11.75;96.04;100091.23;223592;1265;138855;-84
2023/11/07 15:13:56;;;;;;;18.80;6.40;;;;;;;11.68;96.44;100089.98;223612;1265;139112;-85
2023/11/07 15:19:50;;;;;;;;;;;;;;;;;;;;;
2023/11/07 15:25:54;;;;;;;17.90;6.60;;;;;;;11.53;97.49;100091.95;223697;1265;138780;-84
2023/11/07 15:31:47;;;;;;;20.40;7.90;;;;;;;11.47;97.84;100090.45;223145;1269;140106;-83
2023/11/07 15:37:48;;;;;;;22.10;10.20;;;;;;;11.38;97.82;100090.20;223726;1265;138847;-84
2023/11/07 15:43:40;;;;;;;17.70;6.90;;;;;;;11.29;98.24;100090.49;223577;1266;139614;-82
2023/11/07 15:49:53;;;;;;;16.60;6.60;;;;;;;11.20;98.66;100089.84;223193;1265;141403;-82
2023/11/07 15:55:35;;;;;;;19.80;11.00;;;;;;;11.10;99.03;100090.50;223741;1265;138920;-83
2023/11/07 16:07:07;;;;;;;;;;;;;;;;;;;;;
2023/11/07 16:13:23;;;;;;;18.90;7.70;;;;;;;10.78;100.00;100098.15;223219;1266;140303;-84
2023/11/07 16:18:59;;;;;;;19.60;9.30;;;;;;;10.69;100.00;100096.30;223129;1265;141896;-84
2023/11/07 16:25:02;;;;;;;20.50;9.20;;;;;;;10.59;100.00;100093.65;223815;1265;105076;-84
2023/11/07 16:31:00;;;;;;;25.90;11.30;;;;;;;10.49;100.00;100100.90;223237;1265;140228;-84
2023/11/07 16:36:54;;;;;;;26.10;12.20;;;;;;;10.41;100.00;100105.26;223811;1265;105337;-84
2023/11/07 16:42:55;;;;;;;22.40;10.80;;;;;;;10.33;100.00;100102.52;223255;1265;139590;-82
2023/11/07 16:48:56;;;;;;;20.50;9.70;;;;;;;10.28;100.00;100102.19;223317;1265;140934;-82
2023/11/07 16:54:58;;;;;;;30.00;12.40;;;;;;;10.21;100.00;100108.27;223698;1266;104900;-82
2023/11/07 17:00:59;;;;;;;30.30;12.00;;;;;;;10.12;100.00;100106.15;223157;1265;140096;-82
2023/11/07 17:07:00;;;;;;;22.90;11.60;;;;;;;10.07;100.00;100104.77;223763;1265;105386;-84
2023/11/07 17:13:02;;;;;;;22.10;12.00;;;;;;;10.04;100.00;100104.27;223291;1270;140412;-83
2023/11/07 17:19:01;;;;;;;30.70;14.90;;;;;;;10.01;100.00;100107.38;223241;1265;140445;-85
2023/11/07 17:25:03;;;;;;;29.10;14.20;;;;;;;9.98;100.00;100110.02;223795;1266;103486;-85
2023/11/07 17:31:04;;;;;;;28.50;14.60;;;;;;;9.94;100.00;100117.84;223199;1269;140431;-84
2023/11/07 17:37:05;;;;;;;30.90;14.60;;;;;;;9.87;100.00;100116.38;223715;1269;103533;-84
2023/11/07 17:43:02;;;;;;;27.00;14.50;;;;;;;9.80;100.00;100112.05;223335;1269;139475;-81
2023/11/07 17:49:03;;;;;;;28.60;13.20;;;;;;;9.72;100.00;100109.00;223145;1266;139727;-82
2023/11/07 17:55:01;;;;;;;;;;;;;;;;;;;;;
2023/11/07 18:01:05;;;;;;;23.80;13.00;;;;;;;9.57;100.00;100104.38;223161;1266;140049;-84
2023/11/07 18:07:04;;;;;;;31.70;16.60;;;;;;;9.46;100.00;100096.96;223706;1265;138728;-82
2023/11/07 18:13:05;;;;;;;29.00;17.20;;;;;;;9.36;100.00;100096.40;223195;1266;139197;-83
2023/11/07 18:19:07;;;;;;;33.50;18.00;;;;;;;9.26;100.00;100099.34;223145;1269;139833;-83
2023/11/07 18:25:09;;;;;;;33.20;18.90;;;;;;;9.11;100.00;100093.45;223709;1265;104095;-84
2023/11/07 18:31:10;;;;;;;87.70;49.60;;;;;;;8.97;100.00;100094.30;223261;1269;140800;-84
2023/11/07 18:49:13;;;;;;;32.70;18.40;;;;;;;8.73;100.00;100098.31;223143;1265;140902;-80
2023/11/07 18:55:14;;;;;;;33.30;17.70;;;;;;;8.67;100.00;100103.10;223678;1266;138480;-81
2023/11/07 19:07:02;;;;;;;32.60;17.10;;;;;;;8.57;100.00;100107.73;223755;1266;106428;-84
2023/11/07 19:31:06;;;;;;;33.70;17.20;;;;;;;8.53;100.00;100113.09;223262;1269;139900;-82
2023/11/07 19:36:49;;;;;;;28.60;15.40;;;;;;;8.56;100.00;100117.14;223674;1267;139101;-82
2023/11/07 19:42:47;;;;;;;;;;;;;;;;;;;;;
2023/11/07 19:48:35;;;;;;;26.00;13.20;;;;;;;8.61;100.00;100103.80;223134;1266;139860;-82
2023/11/07 19:54:39;;;;;;;30.70;13.80;;;;;;;8.63;100.00;100106.34;223676;1269;139146;-83
2023/11/07 20:00:36;;;;;;;32.80;15.30;;;;;;;8.65;100.00;100109.02;223133;1270;139431;-83
2023/11/07 20:06:36;;;;;;;;;;;;;;;;;;;;;
2023/11/07 20:12:19;;;;;;;24.40;13.50;;;;;;;8.67;100.00;100110.93;223006;1269;139854;-82
2023/11/07 20:18:19;;;;;;;;;;;;;;;;;;;;;
2023/11/07 20:24:11;;;;;;;27.30;13.60;;;;;;;8.70;100.00;100118.10;223859;1266;138677;-83
2023/11/07 20:30:12;;;;;;;24.00;12.80;;;;;;;8.74;100.00;100115.35;223117;1266;140231;-84
2023/11/07 20:36:15;;;;;;;22.60;11.40;;;;;;;8.78;100.00;100115.00;223644;1266;138722;-83
2023/11/07 20:42:18;;;;;;;21.40;10.60;;;;;;;8.84;100.00;100114.05;223070;1269;140023;-84
2023/11/07 20:48:22;;;;;;;20.40;11.20;;;;;;;8.87;100.00;100112.77;223020;1266;140114;-85
2023/11/07 20:54:23;;;;;;;24.30;12.00;;;;;;;8.91;100.00;100111.16;223586;1265;138789;-84
2023/11/07 21:00:24;;;;;;;22.20;10.70;;;;;;;8.95;100.00;100103.30;223103;1266;140082;-84
2023/11/07 21:12:28;;;;;;;19.40;9.10;;;;;;;9.03;100.00;100094.84;223135;1266;140215;-85
2023/11/07 21:18:30;;;;;;;19.50;9.70;;;;;;;9.06;100.00;100089.61;223257;1265;159888;-84
2023/11/07 21:24:28;;;;;;;;;;;;;;;;;;;;;
2023/11/07 21:30:30;;;;;;;24.10;11.40;;;;;;;9.09;100.00;100084.41;219084;1267;5395785;-84
2023/11/07 21:36:21;;;;;;;23.10;11.30;;;;;;;9.08;100.00;100082.20;223592;1266;139030;-84
2023/11/07 21:42:18;;;;;;;21.70;10.90;;;;;;;9.06;100.00;100080.92;223060;1266;139595;-85
2023/11/07 21:48:10;;;;;;;;;;;;;;;;;;;;;
2023/11/07 21:54:12;;;;;;;19.60;9.60;;;;;;;9.01;100.00;100080.87;223550;1269;139301;-84
2023/11/07 22:00:02;;;;;;;;;;;;;;;;;;;;;
2023/11/07 22:06:03;;;;;;;19.30;8.90;;;;;;;8.99;100.00;100083.59;223728;1265;138514;-85
2023/11/07 22:11:53;;;;;;;;;;;;;;;;;;;;;
2023/11/07 22:23:57;;;;;;;18.60;9.60;;;;;;;8.96;100.00;100084.17;223557;1267;139133;-83
2023/11/07 22:30:23;;;;;;;19.00;10.70;;;;;;;8.96;100.00;100079.63;223051;1269;139838;-84
2023/11/07 22:35:59;;;;;;;19.00;9.80;;;;;;;8.96;100.00;100072.73;223535;1265;138976;-85
2023/11/07 22:42:00;;;;;;;19.80;10.10;;;;;;;8.97;100.00;100075.86;223111;1265;140045;-84
2023/11/07 22:48:01;;;;;;;23.20;10.40;;;;;;;8.96;100.00;100071.25;223659;1267;139729;-85
2023/11/07 22:59:53;;;;;;;;;;;;;;;;;;;;;
2023/11/07 23:11:58;;;;;;;21.00;9.90;;;;;;;8.94;100.00;100062.27;222953;1265;139743;-84
2023/11/07 23:17:58;;;;;;;21.10;10.10;;;;;;;8.93;100.00;100063.45;223640;1267;139006;-83
2023/11/07 23:29:56;;;;;;;;;;;;;;;;;;;;;
2023/11/07 23:35:59;;;;;;;18.00;9.20;;;;;;;8.94;100.00;100068.08;223694;1267;139067;-84
2023/11/07 23:42:01;;;;;;;17.20;8.10;;;;;;;8.94;100.00;100068.16;223047;1269;140150;-83
2023/11/07 23:48:02;;;;;;;18.30;9.10;;;;;;;8.95;100.00;100066.59;223583;1265;138496;-83
2023/11/07 23:59:56;;;;;;;16.60;8.80;;;;;;;8.94;100.00;100062.43;223317;1267;140039;-84
